sensor_id;sensor_type;location;lat;lon;timestamp;P1;durP1;ratioP1;P2;durP2;ratioP2
34136;SDS011;20414;50.860;4.382;2022-12-08T00:01:25;0.77;;;0.52;;
34136;SDS011;20414;50.860;4.382;2022-12-08T00:03:53;0.70;;;0.63;;
34136;SDS011;20414;50.860;4.382;2022-12-08T00:09:26;1.25;;;0.70;;
34136;SDS011;20414;50.860;4.382;2022-12-08T00:11:57;0.90;;;0.70;;
34136;SDS011;20414;50.860;4.382;2022-12-08T00:14:26;0.63;;;0.57;;
34136;SDS011;20414;50.860;4.382;2022-12-08T00:16:52;1.48;;;0.73;;
34136;SDS011;20414;50.860;4.382;2022-12-08T00:19:18;0.65;;;0.60;;
34136;SDS011;20414;50.860;4.382;2022-12-08T00:21:44;0.80;;;0.60;;
34136;SDS011;20414;50.860;4.382;2022-12-08T00:24:10;0.88;;;0.80;;
34136;SDS011;20414;50.860;4.382;2022-12-08T00:26:36;0.80;;;0.70;;
34136;SDS011;20414;50.860;4.382;2022-12-08T00:29:02;0.98;;;0.88;;
34136;SDS011;20414;50.860;4.382;2022-12-08T00:31:28;1.05;;;0.52;;
34136;SDS011;20414;50.860;4.382;2022-12-08T00:33:54;1.10;;;0.85;;
34136;SDS011;20414;50.860;4.382;2022-12-08T00:36:20;1.23;;;0.68;;
34136;SDS011;20414;50.860;4.382;2022-12-08T00:38:46;0.73;;;0.70;;
34136;SDS011;20414;50.860;4.382;2022-12-08T00:41:16;1.10;;;0.63;;
34136;SDS011;20414;50.860;4.382;2022-12-08T00:44:08;0.65;;;0.65;;
34136;SDS011;20414;50.860;4.382;2022-12-08T00:46:35;1.07;;;0.70;;
34136;SDS011;20414;50.860;4.382;2022-12-08T00:49:01;0.68;;;0.68;;
34136;SDS011;20414;50.860;4.382;2022-12-08T00:51:27;0.90;;;0.70;;
34136;SDS011;20414;50.860;4.382;2022-12-08T00:53:53;0.77;;;0.77;;
34136;SDS011;20414;50.860;4.382;2022-12-08T00:56:19;0.90;;;0.70;;
34136;SDS011;20414;50.860;4.382;2022-12-08T00:58:44;0.90;;;0.70;;
34136;SDS011;20414;50.860;4.382;2022-12-08T01:01:11;1.17;;;0.75;;
34136;SDS011;20414;50.860;4.382;2022-12-08T01:03:37;1.00;;;0.77;;
34136;SDS011;20414;50.860;4.382;2022-12-08T01:06:04;1.15;;;0.90;;
34136;SDS011;20414;50.860;4.382;2022-12-08T01:08:31;0.85;;;0.73;;
34136;SDS011;20414;50.860;4.382;2022-12-08T01:11:02;0.65;;;0.65;;
34136;SDS011;20414;50.860;4.382;2022-12-08T01:13:28;1.85;;;0.80;;
34136;SDS011;20414;50.860;4.382;2022-12-08T01:15:54;1.02;;;0.68;;
34136;SDS011;20414;50.860;4.382;2022-12-08T01:18:20;0.90;;;0.75;;
34136;SDS011;20414;50.860;4.382;2022-12-08T01:20:46;1.00;;;0.80;;
34136;SDS011;20414;50.860;4.382;2022-12-08T01:23:12;0.85;;;0.60;;
34136;SDS011;20414;50.860;4.382;2022-12-08T01:25:37;0.82;;;0.82;;
34136;SDS011;20414;50.860;4.382;2022-12-08T01:28:03;0.77;;;0.77;;
34136;SDS011;20414;50.860;4.382;2022-12-08T01:30:29;0.82;;;0.80;;
34136;SDS011;20414;50.860;4.382;2022-12-08T01:32:54;1.30;;;0.90;;
34136;SDS011;20414;50.860;4.382;2022-12-08T01:35:20;1.10;;;0.80;;
34136;SDS011;20414;50.860;4.382;2022-12-08T01:37:46;1.73;;;0.80;;
34136;SDS011;20414;50.860;4.382;2022-12-08T01:40:13;0.80;;;0.80;;
34136;SDS011;20414;50.860;4.382;2022-12-08T01:42:39;0.90;;;0.90;;
34136;SDS011;20414;50.860;4.382;2022-12-08T01:45:06;1.40;;;0.90;;
34136;SDS011;20414;50.860;4.382;2022-12-08T01:47:42;1.00;;;0.70;;
34136;SDS011;20414;50.860;4.382;2022-12-08T01:50:12;1.17;;;1.02;;
34136;SDS011;20414;50.860;4.382;2022-12-08T01:52:40;0.90;;;0.90;;
34136;SDS011;20414;50.860;4.382;2022-12-08T01:55:14;1.25;;;0.88;;
34136;SDS011;20414;50.860;4.382;2022-12-08T01:57:46;0.98;;;0.80;;
34136;SDS011;20414;50.860;4.382;2022-12-08T02:00:16;0.70;;;0.60;;
34136;SDS011;20414;50.860;4.382;2022-12-08T02:05:13;1.45;;;1.08;;
34136;SDS011;20414;50.860;4.382;2022-12-08T02:07:40;0.90;;;0.90;;
34136;SDS011;20414;50.860;4.382;2022-12-08T02:10:07;0.95;;;0.85;;
34136;SDS011;20414;50.860;4.382;2022-12-08T02:12:34;1.25;;;0.80;;
34136;SDS011;20414;50.860;4.382;2022-12-08T02:14:59;0.85;;;0.80;;
34136;SDS011;20414;50.860;4.382;2022-12-08T02:17:42;1.45;;;0.80;;
34136;SDS011;20414;50.860;4.382;2022-12-08T02:22:58;0.70;;;0.70;;
34136;SDS011;20414;50.860;4.382;2022-12-08T02:31:07;0.95;;;0.70;;
34136;SDS011;20414;50.860;4.382;2022-12-08T02:33:58;1.73;;;1.08;;
34136;SDS011;20414;50.860;4.382;2022-12-08T02:44:38;2.22;;;1.10;;
34136;SDS011;20414;50.860;4.382;2022-12-08T02:49:38;1.45;;;0.90;;
34136;SDS011;20414;50.860;4.382;2022-12-08T02:52:34;1.10;;;1.00;;
34136;SDS011;20414;50.860;4.382;2022-12-08T02:54:50;1.08;;;0.88;;
34136;SDS011;20414;50.860;4.382;2022-12-08T03:06:04;1.30;;;0.95;;
34136;SDS011;20414;50.860;4.382;2022-12-08T03:08:57;1.80;;;1.15;;
34136;SDS011;20414;50.860;4.382;2022-12-08T03:14:24;1.13;;;1.00;;
34136;SDS011;20414;50.860;4.382;2022-12-08T03:16:51;1.70;;;1.10;;
34136;SDS011;20414;50.860;4.382;2022-12-08T03:19:23;1.52;;;1.20;;
34136;SDS011;20414;50.860;4.382;2022-12-08T03:21:57;1.75;;;1.20;;
34136;SDS011;20414;50.860;4.382;2022-12-08T03:24:27;1.60;;;1.10;;
34136;SDS011;20414;50.860;4.382;2022-12-08T03:29:43;2.10;;;1.27;;
34136;SDS011;20414;50.860;4.382;2022-12-08T03:34:56;1.50;;;1.38;;
34136;SDS011;20414;50.860;4.382;2022-12-08T03:37:26;1.42;;;1.27;;
34136;SDS011;20414;50.860;4.382;2022-12-08T03:39:52;6.63;;;1.98;;
34136;SDS011;20414;50.860;4.382;2022-12-08T03:42:18;1.92;;;1.33;;
34136;SDS011;20414;50.860;4.382;2022-12-08T03:44:44;2.65;;;1.20;;
34136;SDS011;20414;50.860;4.382;2022-12-08T03:47:09;1.50;;;1.30;;
34136;SDS011;20414;50.860;4.382;2022-12-08T03:49:35;3.65;;;1.30;;
34136;SDS011;20414;50.860;4.382;2022-12-08T03:52:01;1.73;;;1.27;;
34136;SDS011;20414;50.860;4.382;2022-12-08T03:54:27;1.58;;;1.00;;
34136;SDS011;20414;50.860;4.382;2022-12-08T03:56:52;1.27;;;1.15;;
34136;SDS011;20414;50.860;4.382;2022-12-08T03:59:18;1.75;;;1.05;;
34136;SDS011;20414;50.860;4.382;2022-12-08T04:01:44;1.35;;;1.17;;
34136;SDS011;20414;50.860;4.382;2022-12-08T04:04:09;2.13;;;1.10;;
34136;SDS011;20414;50.860;4.382;2022-12-08T04:06:35;2.50;;;1.52;;
34136;SDS011;20414;50.860;4.382;2022-12-08T04:09:01;1.85;;;1.30;;
34136;SDS011;20414;50.860;4.382;2022-12-08T04:11:27;1.75;;;1.48;;
34136;SDS011;20414;50.860;4.382;2022-12-08T04:13:53;1.83;;;1.23;;
34136;SDS011;20414;50.860;4.382;2022-12-08T04:16:22;1.98;;;1.30;;
34136;SDS011;20414;50.860;4.382;2022-12-08T04:18:50;1.38;;;1.13;;
34136;SDS011;20414;50.860;4.382;2022-12-08T04:21:15;1.70;;;1.30;;
34136;SDS011;20414;50.860;4.382;2022-12-08T04:23:41;1.73;;;1.20;;
34136;SDS011;20414;50.860;4.382;2022-12-08T04:26:07;2.65;;;1.30;;
34136;SDS011;20414;50.860;4.382;2022-12-08T04:28:33;1.50;;;1.30;;
34136;SDS011;20414;50.860;4.382;2022-12-08T04:30:59;2.22;;;1.60;;
34136;SDS011;20414;50.860;4.382;2022-12-08T04:33:25;1.55;;;1.30;;
34136;SDS011;20414;50.860;4.382;2022-12-08T04:35:50;1.55;;;1.30;;
34136;SDS011;20414;50.860;4.382;2022-12-08T04:38:16;1.98;;;1.35;;
34136;SDS011;20414;50.860;4.382;2022-12-08T04:40:42;2.00;;;1.30;;
34136;SDS011;20414;50.860;4.382;2022-12-08T04:43:08;2.55;;;1.30;;
34136;SDS011;20414;50.860;4.382;2022-12-08T04:45:33;8.77;;;1.63;;
34136;SDS011;20414;50.860;4.382;2022-12-08T04:47:59;2.00;;;1.40;;
34136;SDS011;20414;50.860;4.382;2022-12-08T04:50:26;1.95;;;1.63;;
34136;SDS011;20414;50.860;4.382;2022-12-08T04:52:52;1.90;;;1.48;;
34136;SDS011;20414;50.860;4.382;2022-12-08T04:55:18;2.78;;;1.67;;
34136;SDS011;20414;50.860;4.382;2022-12-08T04:57:44;1.95;;;1.30;;
34136;SDS011;20414;50.860;4.382;2022-12-08T05:00:10;2.47;;;1.77;;
34136;SDS011;20414;50.860;4.382;2022-12-08T05:02:37;1.75;;;1.45;;
34136;SDS011;20414;50.860;4.382;2022-12-08T05:05:03;1.60;;;1.40;;
34136;SDS011;20414;50.860;4.382;2022-12-08T05:07:30;2.40;;;1.63;;
34136;SDS011;20414;50.860;4.382;2022-12-08T05:09:56;1.65;;;1.38;;
34136;SDS011;20414;50.860;4.382;2022-12-08T05:12:21;2.10;;;1.48;;
34136;SDS011;20414;50.860;4.382;2022-12-08T05:14:47;2.30;;;1.67;;
34136;SDS011;20414;50.860;4.382;2022-12-08T05:17:16;1.83;;;1.35;;
34136;SDS011;20414;50.860;4.382;2022-12-08T05:19:42;1.50;;;1.40;;
34136;SDS011;20414;50.860;4.382;2022-12-08T05:22:09;2.05;;;1.40;;
34136;SDS011;20414;50.860;4.382;2022-12-08T05:24:34;2.72;;;1.48;;
34136;SDS011;20414;50.860;4.382;2022-12-08T05:27:00;2.95;;;1.40;;
34136;SDS011;20414;50.860;4.382;2022-12-08T05:29:26;1.85;;;1.33;;
34136;SDS011;20414;50.860;4.382;2022-12-08T05:31:52;1.98;;;1.60;;
34136;SDS011;20414;50.860;4.382;2022-12-08T05:34:18;1.60;;;1.50;;
34136;SDS011;20414;50.860;4.382;2022-12-08T05:36:43;2.35;;;1.52;;
34136;SDS011;20414;50.860;4.382;2022-12-08T05:39:12;3.88;;;1.60;;
34136;SDS011;20414;50.860;4.382;2022-12-08T05:41:39;2.15;;;1.50;;
34136;SDS011;20414;50.860;4.382;2022-12-08T05:44:05;2.47;;;1.48;;
34136;SDS011;20414;50.860;4.382;2022-12-08T05:46:31;1.92;;;1.55;;
34136;SDS011;20414;50.860;4.382;2022-12-08T05:49:00;2.33;;;1.55;;
34136;SDS011;20414;50.860;4.382;2022-12-08T05:51:27;1.88;;;1.40;;
34136;SDS011;20414;50.860;4.382;2022-12-08T05:53:53;2.35;;;1.40;;
34136;SDS011;20414;50.860;4.382;2022-12-08T05:56:19;1.60;;;1.50;;
34136;SDS011;20414;50.860;4.382;2022-12-08T05:58:45;1.90;;;1.42;;
34136;SDS011;20414;50.860;4.382;2022-12-08T06:01:27;1.50;;;1.40;;
34136;SDS011;20414;50.860;4.382;2022-12-08T06:04:02;2.65;;;1.58;;
34136;SDS011;20414;50.860;4.382;2022-12-08T06:06:30;3.75;;;1.60;;
34136;SDS011;20414;50.860;4.382;2022-12-08T06:09:04;2.00;;;1.55;;
34136;SDS011;20414;50.860;4.382;2022-12-08T06:14:01;1.42;;;1.33;;
34136;SDS011;20414;50.860;4.382;2022-12-08T06:16:27;1.83;;;1.45;;
34136;SDS011;20414;50.860;4.382;2022-12-08T06:19:00;1.88;;;1.50;;
34136;SDS011;20414;50.860;4.382;2022-12-08T06:21:25;1.45;;;1.33;;
34136;SDS011;20414;50.860;4.382;2022-12-08T06:23:51;1.85;;;1.50;;
34136;SDS011;20414;50.860;4.382;2022-12-08T06:26:18;1.88;;;1.50;;
34136;SDS011;20414;50.860;4.382;2022-12-08T06:28:45;1.63;;;1.52;;
34136;SDS011;20414;50.860;4.382;2022-12-08T06:31:16;2.55;;;1.60;;
34136;SDS011;20414;50.860;4.382;2022-12-08T06:33:49;3.03;;;1.60;;
34136;SDS011;20414;50.860;4.382;2022-12-08T06:36:16;1.92;;;1.55;;
34136;SDS011;20414;50.860;4.382;2022-12-08T06:38:44;2.60;;;1.50;;
34136;SDS011;20414;50.860;4.382;2022-12-08T06:41:10;1.73;;;1.38;;
34136;SDS011;20414;50.860;4.382;2022-12-08T06:43:36;2.05;;;1.75;;
34136;SDS011;20414;50.860;4.382;2022-12-08T06:46:04;1.92;;;1.45;;
34136;SDS011;20414;50.860;4.382;2022-12-08T06:48:31;1.40;;;1.30;;
34136;SDS011;20414;50.860;4.382;2022-12-08T06:50:59;2.95;;;1.48;;
34136;SDS011;20414;50.860;4.382;2022-12-08T06:53:34;1.85;;;1.30;;
34136;SDS011;20414;50.860;4.382;2022-12-08T06:56:00;1.60;;;1.48;;
34136;SDS011;20414;50.860;4.382;2022-12-08T06:58:25;2.05;;;1.35;;
34136;SDS011;20414;50.860;4.382;2022-12-08T07:00:51;2.00;;;1.20;;
34136;SDS011;20414;50.860;4.382;2022-12-08T07:03:17;1.50;;;1.30;;
34136;SDS011;20414;50.860;4.382;2022-12-08T07:05:43;2.70;;;1.27;;
34136;SDS011;20414;50.860;4.382;2022-12-08T07:08:09;2.08;;;1.70;;
34136;SDS011;20414;50.860;4.382;2022-12-08T07:10:34;1.60;;;1.50;;
34136;SDS011;20414;50.860;4.382;2022-12-08T07:13:01;2.10;;;1.48;;
34136;SDS011;20414;50.860;4.382;2022-12-08T07:15:26;1.98;;;1.60;;
34136;SDS011;20414;50.860;4.382;2022-12-08T07:17:52;2.33;;;1.52;;
34136;SDS011;20414;50.860;4.382;2022-12-08T07:20:18;3.13;;;1.55;;
34136;SDS011;20414;50.860;4.382;2022-12-08T07:22:50;2.60;;;1.60;;
34136;SDS011;20414;50.860;4.382;2022-12-08T07:25:16;1.63;;;1.40;;
34136;SDS011;20414;50.860;4.382;2022-12-08T07:27:43;2.08;;;1.42;;
34136;SDS011;20414;50.860;4.382;2022-12-08T07:30:09;1.83;;;1.58;;
34136;SDS011;20414;50.860;4.382;2022-12-08T07:32:36;3.33;;;1.60;;
34136;SDS011;20414;50.860;4.382;2022-12-08T07:35:03;1.85;;;1.50;;
34136;SDS011;20414;50.860;4.382;2022-12-08T07:37:31;1.92;;;1.40;;
34136;SDS011;20414;50.860;4.382;2022-12-08T07:39:57;1.90;;;1.40;;
34136;SDS011;20414;50.860;4.382;2022-12-08T07:42:23;1.73;;;1.50;;
34136;SDS011;20414;50.860;4.382;2022-12-08T07:44:48;2.13;;;1.30;;
34136;SDS011;20414;50.860;4.382;2022-12-08T07:47:14;1.60;;;1.33;;
34136;SDS011;20414;50.860;4.382;2022-12-08T07:49:39;1.70;;;1.60;;
34136;SDS011;20414;50.860;4.382;2022-12-08T07:52:05;1.77;;;1.58;;
34136;SDS011;20414;50.860;4.382;2022-12-08T07:54:31;1.75;;;1.23;;
34136;SDS011;20414;50.860;4.382;2022-12-08T07:56:57;2.00;;;1.60;;
34136;SDS011;20414;50.860;4.382;2022-12-08T07:59:22;1.50;;;1.40;;
34136;SDS011;20414;50.860;4.382;2022-12-08T08:01:48;1.83;;;1.40;;
34136;SDS011;20414;50.860;4.382;2022-12-08T08:04:15;1.48;;;1.27;;
34136;SDS011;20414;50.860;4.382;2022-12-08T08:06:41;2.05;;;1.50;;
34136;SDS011;20414;50.860;4.382;2022-12-08T08:09:07;1.75;;;1.30;;
34136;SDS011;20414;50.860;4.382;2022-12-08T08:11:34;1.40;;;1.20;;
34136;SDS011;20414;50.860;4.382;2022-12-08T08:14:00;1.67;;;1.30;;
34136;SDS011;20414;50.860;4.382;2022-12-08T08:16:26;1.75;;;1.40;;
34136;SDS011;20414;50.860;4.382;2022-12-08T08:18:52;2.53;;;1.40;;
34136;SDS011;20414;50.860;4.382;2022-12-08T08:21:18;1.75;;;1.27;;
34136;SDS011;20414;50.860;4.382;2022-12-08T08:23:45;1.95;;;1.30;;
34136;SDS011;20414;50.860;4.382;2022-12-08T08:26:10;1.73;;;1.15;;
34136;SDS011;20414;50.860;4.382;2022-12-08T08:28:36;1.60;;;1.23;;
34136;SDS011;20414;50.860;4.382;2022-12-08T08:31:02;1.80;;;1.35;;
34136;SDS011;20414;50.860;4.382;2022-12-08T08:33:29;1.80;;;1.20;;
34136;SDS011;20414;50.860;4.382;2022-12-08T08:35:54;2.38;;;1.48;;
34136;SDS011;20414;50.860;4.382;2022-12-08T08:38:20;1.88;;;1.30;;
34136;SDS011;20414;50.860;4.382;2022-12-08T08:40:46;1.95;;;1.30;;
34136;SDS011;20414;50.860;4.382;2022-12-08T08:43:12;1.83;;;1.40;;
34136;SDS011;20414;50.860;4.382;2022-12-08T08:45:56;1.13;;;1.00;;
34136;SDS011;20414;50.860;4.382;2022-12-08T08:48:24;2.00;;;1.42;;
34136;SDS011;20414;50.860;4.382;2022-12-08T08:50:50;1.60;;;1.17;;
34136;SDS011;20414;50.860;4.382;2022-12-08T08:53:16;1.20;;;1.00;;
34136;SDS011;20414;50.860;4.382;2022-12-08T08:55:42;1.83;;;1.30;;
34136;SDS011;20414;50.860;4.382;2022-12-08T08:58:08;2.00;;;1.20;;
34136;SDS011;20414;50.860;4.382;2022-12-08T09:00:33;1.45;;;1.10;;
34136;SDS011;20414;50.860;4.382;2022-12-08T09:02:59;2.22;;;1.52;;
34136;SDS011;20414;50.860;4.382;2022-12-08T09:05:24;1.70;;;1.42;;
34136;SDS011;20414;50.860;4.382;2022-12-08T09:07:50;2.17;;;1.40;;
34136;SDS011;20414;50.860;4.382;2022-12-08T09:10:16;1.30;;;1.10;;
34136;SDS011;20414;50.860;4.382;2022-12-08T09:12:41;1.92;;;1.10;;
34136;SDS011;20414;50.860;4.382;2022-12-08T09:15:07;1.90;;;1.30;;
34136;SDS011;20414;50.860;4.382;2022-12-08T09:17:33;3.13;;;1.60;;
34136;SDS011;20414;50.860;4.382;2022-12-08T09:20:00;1.40;;;1.30;;
34136;SDS011;20414;50.860;4.382;2022-12-08T09:22:26;2.13;;;1.40;;
34136;SDS011;20414;50.860;4.382;2022-12-08T09:24:51;1.52;;;1.15;;
34136;SDS011;20414;50.860;4.382;2022-12-08T09:27:17;1.88;;;1.30;;
34136;SDS011;20414;50.860;4.382;2022-12-08T09:29:43;1.73;;;1.30;;
34136;SDS011;20414;50.860;4.382;2022-12-08T09:32:09;1.65;;;1.20;;
34136;SDS011;20414;50.860;4.382;2022-12-08T09:34:34;1.50;;;1.20;;
34136;SDS011;20414;50.860;4.382;2022-12-08T09:37:00;1.90;;;1.30;;
34136;SDS011;20414;50.860;4.382;2022-12-08T09:39:26;1.48;;;1.08;;
34136;SDS011;20414;50.860;4.382;2022-12-08T09:42:02;1.88;;;1.10;;
34136;SDS011;20414;50.860;4.382;2022-12-08T09:44:47;1.98;;;1.10;;
34136;SDS011;20414;50.860;4.382;2022-12-08T09:47:31;1.90;;;1.20;;
34136;SDS011;20414;50.860;4.382;2022-12-08T09:50:13;1.50;;;1.20;;
34136;SDS011;20414;50.860;4.382;2022-12-08T09:53:03;1.40;;;1.30;;
34136;SDS011;20414;50.860;4.382;2022-12-08T09:58:02;1.52;;;1.13;;
34136;SDS011;20414;50.860;4.382;2022-12-08T10:00:35;1.10;;;1.00;;
34136;SDS011;20414;50.860;4.382;2022-12-08T10:03:01;1.88;;;1.20;;
34136;SDS011;20414;50.860;4.382;2022-12-08T10:05:26;1.48;;;0.98;;
34136;SDS011;20414;50.860;4.382;2022-12-08T10:08:07;1.67;;;1.10;;
34136;SDS011;20414;50.860;4.382;2022-12-08T10:13:26;1.25;;;1.00;;
34136;SDS011;20414;50.860;4.382;2022-12-08T10:19:00;1.70;;;1.20;;
34136;SDS011;20414;50.860;4.382;2022-12-08T10:21:39;1.30;;;1.20;;
34136;SDS011;20414;50.860;4.382;2022-12-08T10:24:10;1.30;;;1.20;;
34136;SDS011;20414;50.860;4.382;2022-12-08T10:26:42;1.58;;;1.00;;
34136;SDS011;20414;50.860;4.382;2022-12-08T10:29:12;2.42;;;1.52;;
34136;SDS011;20414;50.860;4.382;2022-12-08T10:31:38;2.45;;;1.10;;
34136;SDS011;20414;50.860;4.382;2022-12-08T10:34:16;1.33;;;1.15;;
34136;SDS011;20414;50.860;4.382;2022-12-08T10:36:52;1.55;;;1.08;;
34136;SDS011;20414;50.860;4.382;2022-12-08T10:39:29;1.95;;;1.25;;
34136;SDS011;20414;50.860;4.382;2022-12-08T10:45:25;1.50;;;1.17;;
34136;SDS011;20414;50.860;4.382;2022-12-08T10:47:41;1.90;;;1.20;;
34136;SDS011;20414;50.860;4.382;2022-12-08T10:52:39;1.50;;;1.17;;
34136;SDS011;20414;50.860;4.382;2022-12-08T10:55:12;1.30;;;1.10;;
34136;SDS011;20414;50.860;4.382;2022-12-08T10:57:40;1.95;;;1.20;;
34136;SDS011;20414;50.860;4.382;2022-12-08T11:00:06;1.30;;;0.90;;
34136;SDS011;20414;50.860;4.382;2022-12-08T11:02:35;1.42;;;1.10;;
34136;SDS011;20414;50.860;4.382;2022-12-08T11:05:13;2.80;;;1.20;;
34136;SDS011;20414;50.860;4.382;2022-12-08T11:07:50;1.30;;;1.02;;
34136;SDS011;20414;50.860;4.382;2022-12-08T11:10:18;1.63;;;1.10;;
34136;SDS011;20414;50.860;4.382;2022-12-08T11:12:51;2.35;;;1.10;;
34136;SDS011;20414;50.860;4.382;2022-12-08T11:15:17;1.50;;;1.05;;
34136;SDS011;20414;50.860;4.382;2022-12-08T11:17:43;1.33;;;1.13;;
34136;SDS011;20414;50.860;4.382;2022-12-08T11:22:42;1.80;;;1.10;;
34136;SDS011;20414;50.860;4.382;2022-12-08T11:25:10;1.48;;;1.02;;
34136;SDS011;20414;50.860;4.382;2022-12-08T11:27:42;1.25;;;1.05;;
34136;SDS011;20414;50.860;4.382;2022-12-08T11:33:33;1.90;;;1.20;;
34136;SDS011;20414;50.860;4.382;2022-12-08T11:35:40;2.30;;;1.10;;
34136;SDS011;20414;50.860;4.382;2022-12-08T11:38:21;1.50;;;1.10;;
34136;SDS011;20414;50.860;4.382;2022-12-08T11:40:57;1.65;;;1.08;;
34136;SDS011;20414;50.860;4.382;2022-12-08T11:46:55;1.40;;;0.93;;
34136;SDS011;20414;50.860;4.382;2022-12-08T11:49:08;2.25;;;1.20;;
34136;SDS011;20414;50.860;4.382;2022-12-08T11:51:43;1.50;;;1.00;;
34136;SDS011;20414;50.860;4.382;2022-12-08T11:54:51;1.75;;;1.05;;
34136;SDS011;20414;50.860;4.382;2022-12-08T11:57:19;1.48;;;1.15;;
34136;SDS011;20414;50.860;4.382;2022-12-08T11:59:50;1.98;;;1.20;;
34136;SDS011;20414;50.860;4.382;2022-12-08T12:02:25;1.75;;;1.00;;
34136;SDS011;20414;50.860;4.382;2022-12-08T12:04:59;1.63;;;1.13;;
34136;SDS011;20414;50.860;4.382;2022-12-08T12:08:45;1.92;;;1.10;;
34136;SDS011;20414;50.860;4.382;2022-12-08T12:13:54;3.10;;;1.10;;
34136;SDS011;20414;50.860;4.382;2022-12-08T12:19:23;1.85;;;1.00;;
34136;SDS011;20414;50.860;4.382;2022-12-08T12:21:52;1.40;;;1.10;;
34136;SDS011;20414;50.860;4.382;2022-12-08T12:24:33;1.83;;;1.00;;
34136;SDS011;20414;50.860;4.382;2022-12-08T12:29:49;2.35;;;1.10;;
34136;SDS011;20414;50.860;4.382;2022-12-08T12:32:38;2.17;;;1.17;;
34136;SDS011;20414;50.860;4.382;2022-12-08T12:35:40;3.42;;;1.08;;
34136;SDS011;20414;50.860;4.382;2022-12-08T12:38:12;1.42;;;0.93;;
34136;SDS011;20414;50.860;4.382;2022-12-08T12:41:05;1.58;;;1.05;;
34136;SDS011;20414;50.860;4.382;2022-12-08T12:43:33;0.88;;;0.82;;
34136;SDS011;20414;50.860;4.382;2022-12-08T12:48:48;1.42;;;1.02;;
34136;SDS011;20414;50.860;4.382;2022-12-08T12:57:14;1.20;;;0.80;;
34136;SDS011;20414;50.860;4.382;2022-12-08T12:59:45;1.48;;;1.20;;
34136;SDS011;20414;50.860;4.382;2022-12-08T13:02:53;1.23;;;0.98;;
34136;SDS011;20414;50.860;4.382;2022-12-08T13:10:32;1.55;;;0.85;;
34136;SDS011;20414;50.860;4.382;2022-12-08T13:13:02;2.93;;;0.90;;
34136;SDS011;20414;50.860;4.382;2022-12-08T13:18:38;2.28;;;1.00;;
34136;SDS011;20414;50.860;4.382;2022-12-08T13:21:10;1.13;;;0.68;;
34136;SDS011;20414;50.860;4.382;2022-12-08T13:23:48;1.90;;;0.90;;
34136;SDS011;20414;50.860;4.382;2022-12-08T13:26:33;1.10;;;0.77;;
34136;SDS011;20414;50.860;4.382;2022-12-08T13:29:28;0.80;;;0.80;;
34136;SDS011;20414;50.860;4.382;2022-12-08T13:32:01;0.70;;;0.70;;
34136;SDS011;20414;50.860;4.382;2022-12-08T13:34:39;1.25;;;0.88;;
34136;SDS011;20414;50.860;4.382;2022-12-08T13:42:12;1.45;;;1.10;;
34136;SDS011;20414;50.860;4.382;2022-12-08T13:47:18;0.70;;;0.70;;
34136;SDS011;20414;50.860;4.382;2022-12-08T13:50:11;1.35;;;0.82;;
34136;SDS011;20414;50.860;4.382;2022-12-08T13:55:34;0.77;;;0.70;;
34136;SDS011;20414;50.860;4.382;2022-12-08T13:58:04;1.65;;;1.00;;
34136;SDS011;20414;50.860;4.382;2022-12-08T14:00:30;1.60;;;0.77;;
34136;SDS011;20414;50.860;4.382;2022-12-08T14:02:56;1.10;;;1.00;;
34136;SDS011;20414;50.860;4.382;2022-12-08T14:05:24;1.08;;;0.80;;
34136;SDS011;20414;50.860;4.382;2022-12-08T14:07:52;0.93;;;0.80;;
34136;SDS011;20414;50.860;4.382;2022-12-08T14:10:29;1.33;;;0.82;;
34136;SDS011;20414;50.860;4.382;2022-12-08T14:13:05;1.45;;;1.00;;
34136;SDS011;20414;50.860;4.382;2022-12-08T14:15:36;1.05;;;0.65;;
34136;SDS011;20414;50.860;4.382;2022-12-08T14:18:04;1.30;;;0.80;;
34136;SDS011;20414;50.860;4.382;2022-12-08T14:20:32;1.40;;;1.00;;
34136;SDS011;20414;50.860;4.382;2022-12-08T14:22:59;0.90;;;0.80;;
34136;SDS011;20414;50.860;4.382;2022-12-08T14:25:32;1.02;;;0.80;;
34136;SDS011;20414;50.860;4.382;2022-12-08T14:28:00;0.95;;;0.70;;
34136;SDS011;20414;50.860;4.382;2022-12-08T14:30:28;1.38;;;0.82;;
34136;SDS011;20414;50.860;4.382;2022-12-08T14:33:00;0.83;;;0.70;;
34136;SDS011;20414;50.860;4.382;2022-12-08T14:35:31;1.10;;;0.73;;
34136;SDS011;20414;50.860;4.382;2022-12-08T14:38:03;1.38;;;0.80;;
34136;SDS011;20414;50.860;4.382;2022-12-08T14:40:39;1.63;;;0.70;;
34136;SDS011;20414;50.860;4.382;2022-12-08T14:43:26;1.20;;;0.75;;
34136;SDS011;20414;50.860;4.382;2022-12-08T14:45:54;1.30;;;1.00;;
34136;SDS011;20414;50.860;4.382;2022-12-08T14:51:17;1.60;;;0.98;;
34136;SDS011;20414;50.860;4.382;2022-12-08T14:53:53;1.30;;;0.70;;
34136;SDS011;20414;50.860;4.382;2022-12-08T14:59:01;0.80;;;0.60;;
34136;SDS011;20414;50.860;4.382;2022-12-08T15:01:27;0.88;;;0.60;;
34136;SDS011;20414;50.860;4.382;2022-12-08T15:03:59;1.35;;;0.77;;
34136;SDS011;20414;50.860;4.382;2022-12-08T15:06:26;1.75;;;0.73;;
34136;SDS011;20414;50.860;4.382;2022-12-08T15:08:57;1.15;;;0.80;;
34136;SDS011;20414;50.860;4.382;2022-12-08T15:13:55;1.05;;;0.73;;
34136;SDS011;20414;50.860;4.382;2022-12-08T15:16:38;0.88;;;0.60;;
34136;SDS011;20414;50.860;4.382;2022-12-08T15:21:43;1.17;;;0.77;;
34136;SDS011;20414;50.860;4.382;2022-12-08T15:24:11;1.92;;;0.70;;
34136;SDS011;20414;50.860;4.382;2022-12-08T15:26:42;1.83;;;0.75;;
34136;SDS011;20414;50.860;4.382;2022-12-08T15:29:20;0.60;;;0.50;;
34136;SDS011;20414;50.860;4.382;2022-12-08T15:31:50;1.40;;;0.65;;
34136;SDS011;20414;50.860;4.382;2022-12-08T15:34:18;1.13;;;0.70;;
34136;SDS011;20414;50.860;4.382;2022-12-08T15:36:45;1.20;;;0.73;;
34136;SDS011;20414;50.860;4.382;2022-12-08T15:39:35;1.00;;;0.73;;
34136;SDS011;20414;50.860;4.382;2022-12-08T15:42:02;0.63;;;0.60;;
34136;SDS011;20414;50.860;4.382;2022-12-08T15:44:30;0.95;;;0.80;;
34136;SDS011;20414;50.860;4.382;2022-12-08T15:46:57;1.20;;;0.70;;
34136;SDS011;20414;50.860;4.382;2022-12-08T15:49:23;0.95;;;0.80;;
34136;SDS011;20414;50.860;4.382;2022-12-08T15:51:50;1.10;;;0.70;;
34136;SDS011;20414;50.860;4.382;2022-12-08T15:54:16;1.10;;;0.60;;
34136;SDS011;20414;50.860;4.382;2022-12-08T15:56:46;1.45;;;0.70;;
34136;SDS011;20414;50.860;4.382;2022-12-08T15:59:18;1.05;;;0.80;;
34136;SDS011;20414;50.860;4.382;2022-12-08T16:01:48;0.70;;;0.60;;
34136;SDS011;20414;50.860;4.382;2022-12-08T16:04:16;0.73;;;0.57;;
34136;SDS011;20414;50.860;4.382;2022-12-08T16:06:47;1.23;;;0.73;;
34136;SDS011;20414;50.860;4.382;2022-12-08T16:09:18;1.08;;;0.65;;
34136;SDS011;20414;50.860;4.382;2022-12-08T16:11:46;0.77;;;0.63;;
34136;SDS011;20414;50.860;4.382;2022-12-08T16:14:30;0.90;;;0.77;;
34136;SDS011;20414;50.860;4.382;2022-12-08T16:16:56;1.52;;;0.85;;
34136;SDS011;20414;50.860;4.382;2022-12-08T16:19:22;1.60;;;0.60;;
34136;SDS011;20414;50.860;4.382;2022-12-08T16:21:48;1.50;;;0.70;;
34136;SDS011;20414;50.860;4.382;2022-12-08T16:24:14;0.75;;;0.55;;
34136;SDS011;20414;50.860;4.382;2022-12-08T16:26:40;1.40;;;0.73;;
34136;SDS011;20414;50.860;4.382;2022-12-08T16:29:06;1.63;;;0.70;;
34136;SDS011;20414;50.860;4.382;2022-12-08T16:31:33;1.05;;;0.70;;
34136;SDS011;20414;50.860;4.382;2022-12-08T16:33:59;1.00;;;0.80;;
34136;SDS011;20414;50.860;4.382;2022-12-08T16:36:24;1.30;;;0.70;;
34136;SDS011;20414;50.860;4.382;2022-12-08T16:38:53;0.73;;;0.52;;
34136;SDS011;20414;50.860;4.382;2022-12-08T16:41:18;1.20;;;0.60;;
34136;SDS011;20414;50.860;4.382;2022-12-08T16:44:03;1.15;;;0.65;;
34136;SDS011;20414;50.860;4.382;2022-12-08T16:46:30;1.10;;;0.80;;
34136;SDS011;20414;50.860;4.382;2022-12-08T16:48:56;0.55;;;0.50;;
34136;SDS011;20414;50.860;4.382;2022-12-08T16:51:23;0.73;;;0.60;;
34136;SDS011;20414;50.860;4.382;2022-12-08T16:53:49;0.70;;;0.60;;
34136;SDS011;20414;50.860;4.382;2022-12-08T16:56:19;1.48;;;0.73;;